sensor_id;sensor_type;location;lat;lon;timestamp;temperature;humidity
13817;DHT22;6979;52.116;5.286;2022-11-12T00:01:47;10.50;99.90
13817;DHT22;6979;52.116;5.286;2022-11-12T00:04:32;10.50;99.90
13817;DHT22;6979;52.116;5.286;2022-11-12T00:07:18;10.50;99.90
13817;DHT22;6979;52.116;5.286;2022-11-12T00:10:04;10.50;99.90
13817;DHT22;6979;52.116;5.286;2022-11-12T00:12:50;10.40;99.90
13817;DHT22;6979;52.116;5.286;2022-11-12T00:15:37;10.40;99.90
13817;DHT22;6979;52.116;5.286;2022-11-12T00:18:22;10.40;99.90
13817;DHT22;6979;52.116;5.286;2022-11-12T00:21:07;10.30;99.90
13817;DHT22;6979;52.116;5.286;2022-11-12T00:23:53;10.30;99.90
13817;DHT22;6979;52.116;5.286;2022-11-12T00:26:39;10.30;99.90
13817;DHT22;6979;52.116;5.286;2022-11-12T00:29:24;10.30;99.90
13817;DHT22;6979;52.116;5.286;2022-11-12T00:32:11;10.20;99.90
13817;DHT22;6979;52.116;5.286;2022-11-12T00:34:56;10.20;99.90
13817;DHT22;6979;52.116;5.286;2022-11-12T00:37:42;10.20;99.90
13817;DHT22;6979;52.116;5.286;2022-11-12T00:40:28;10.10;99.90
13817;DHT22;6979;52.116;5.286;2022-11-12T00:43:13;10.10;99.90
13817;DHT22;6979;52.116;5.286;2022-11-12T00:45:59;10.10;99.90
13817;DHT22;6979;52.116;5.286;2022-11-12T00:48:46;10.10;99.90
13817;DHT22;6979;52.116;5.286;2022-11-12T00:51:31;10.10;99.90
13817;DHT22;6979;52.116;5.286;2022-11-12T00:54:17;10.10;99.90
13817;DHT22;6979;52.116;5.286;2022-11-12T00:57:02;10.00;99.90
13817;DHT22;6979;52.116;5.286;2022-11-12T00:59:48;10.00;99.90
13817;DHT22;6979;52.116;5.286;2022-11-12T01:02:33;10.00;99.90
13817;DHT22;6979;52.116;5.286;2022-11-12T01:05:20;10.00;99.90
13817;DHT22;6979;52.116;5.286;2022-11-12T01:08:06;10.00;99.90
13817;DHT22;6979;52.116;5.286;2022-11-12T01:10:51;9.90;99.90
13817;DHT22;6979;52.116;5.286;2022-11-12T01:13:38;9.90;99.90
13817;DHT22;6979;52.116;5.286;2022-11-12T01:16:26;9.90;99.90
13817;DHT22;6979;52.116;5.286;2022-11-12T01:19:12;9.90;99.90
13817;DHT22;6979;52.116;5.286;2022-11-12T01:21:59;9.80;99.90
13817;DHT22;6979;52.116;5.286;2022-11-12T01:24:44;9.80;99.90
13817;DHT22;6979;52.116;5.286;2022-11-12T01:27:30;9.80;99.90
13817;DHT22;6979;52.116;5.286;2022-11-12T01:30:15;9.80;99.90
13817;DHT22;6979;52.116;5.286;2022-11-12T01:33:01;9.80;99.90
13817;DHT22;6979;52.116;5.286;2022-11-12T01:35:46;9.80;99.90
13817;DHT22;6979;52.116;5.286;2022-11-12T01:38:34;9.80;99.90
13817;DHT22;6979;52.116;5.286;2022-11-12T01:41:21;9.80;99.90
13817;DHT22;6979;52.116;5.286;2022-11-12T01:44:14;9.70;99.90
13817;DHT22;6979;52.116;5.286;2022-11-12T01:47:04;9.70;99.90
13817;DHT22;6979;52.116;5.286;2022-11-12T01:49:53;9.70;99.90
13817;DHT22;6979;52.116;5.286;2022-11-12T01:52:42;9.70;99.90
13817;DHT22;6979;52.116;5.286;2022-11-12T01:55:34;9.70;99.90
13817;DHT22;6979;52.116;5.286;2022-11-12T01:58:23;9.70;99.90
13817;DHT22;6979;52.116;5.286;2022-11-12T02:01:09;9.70;99.90
13817;DHT22;6979;52.116;5.286;2022-11-12T02:03:55;9.70;99.90
13817;DHT22;6979;52.116;5.286;2022-11-12T02:06:42;9.70;99.90
13817;DHT22;6979;52.116;5.286;2022-11-12T02:09:29;9.70;99.90
13817;DHT22;6979;52.116;5.286;2022-11-12T02:12:17;9.80;99.90
13817;DHT22;6979;52.116;5.286;2022-11-12T02:15:16;9.70;99.90
13817;DHT22;6979;52.116;5.286;2022-11-12T02:18:04;9.70;99.90
13817;DHT22;6979;52.116;5.286;2022-11-12T02:20:52;9.70;99.90
13817;DHT22;6979;52.116;5.286;2022-11-12T02:23:40;9.70;99.90
13817;DHT22;6979;52.116;5.286;2022-11-12T02:26:27;9.70;99.90
13817;DHT22;6979;52.116;5.286;2022-11-12T02:29:13;9.70;99.90
13817;DHT22;6979;52.116;5.286;2022-11-12T02:31:59;9.70;99.90
13817;DHT22;6979;52.116;5.286;2022-11-12T02:34:44;9.60;99.90
13817;DHT22;6979;52.116;5.286;2022-11-12T02:37:29;9.60;99.90
13817;DHT22;6979;52.116;5.286;2022-11-12T02:40:16;9.60;99.90
13817;DHT22;6979;52.116;5.286;2022-11-12T02:43:02;9.60;99.90
13817;DHT22;6979;52.116;5.286;2022-11-12T02:45:48;9.60;99.90
13817;DHT22;6979;52.116;5.286;2022-11-12T02:48:33;9.60;99.90
13817;DHT22;6979;52.116;5.286;2022-11-12T02:51:18;9.60;99.90
13817;DHT22;6979;52.116;5.286;2022-11-12T02:54:04;9.50;99.90
13817;DHT22;6979;52.116;5.286;2022-11-12T02:56:51;9.60;99.90
13817;DHT22;6979;52.116;5.286;2022-11-12T02:59:36;9.50;99.90
13817;DHT22;6979;52.116;5.286;2022-11-12T03:02:22;9.50;99.90
13817;DHT22;6979;52.116;5.286;2022-11-12T03:05:08;9.50;99.90
13817;DHT22;6979;52.116;5.286;2022-11-12T03:07:58;9.50;99.90
13817;DHT22;6979;52.116;5.286;2022-11-12T03:10:43;9.50;99.90
13817;DHT22;6979;52.116;5.286;2022-11-12T03:13:30;9.50;99.90
13817;DHT22;6979;52.116;5.286;2022-11-12T03:16:15;9.50;99.90
13817;DHT22;6979;52.116;5.286;2022-11-12T03:19:01;9.50;99.90
13817;DHT22;6979;52.116;5.286;2022-11-12T03:21:46;9.50;99.90
13817;DHT22;6979;52.116;5.286;2022-11-12T03:24:32;9.50;99.90
13817;DHT22;6979;52.116;5.286;2022-11-12T03:27:17;9.50;99.90
13817;DHT22;6979;52.116;5.286;2022-11-12T03:30:05;9.50;99.90
13817;DHT22;6979;52.116;5.286;2022-11-12T03:32:51;9.50;99.90
13817;DHT22;6979;52.116;5.286;2022-11-12T03:35:37;9.50;99.90
13817;DHT22;6979;52.116;5.286;2022-11-12T03:38:23;9.50;99.90
13817;DHT22;6979;52.116;5.286;2022-11-12T03:41:08;9.50;99.90
13817;DHT22;6979;52.116;5.286;2022-11-12T03:43:54;9.50;99.90
13817;DHT22;6979;52.116;5.286;2022-11-12T03:46:40;9.50;99.90
13817;DHT22;6979;52.116;5.286;2022-11-12T03:49:25;9.50;99.90
13817;DHT22;6979;52.116;5.286;2022-11-12T03:52:11;9.50;99.90
13817;DHT22;6979;52.116;5.286;2022-11-12T03:54:57;9.50;99.90
13817;DHT22;6979;52.116;5.286;2022-11-12T03:57:42;9.50;99.90
13817;DHT22;6979;52.116;5.286;2022-11-12T04:00:29;9.50;99.90
13817;DHT22;6979;52.116;5.286;2022-11-12T04:03:15;9.50;99.90
13817;DHT22;6979;52.116;5.286;2022-11-12T04:06:01;9.50;99.90
13817;DHT22;6979;52.116;5.286;2022-11-12T04:09:04;9.40;99.90
13817;DHT22;6979;52.116;5.286;2022-11-12T04:11:49;9.40;99.90
13817;DHT22;6979;52.116;5.286;2022-11-12T04:14:35;9.40;99.90
13817;DHT22;6979;52.116;5.286;2022-11-12T04:17:19;9.40;99.90
13817;DHT22;6979;52.116;5.286;2022-11-12T04:20:24;9.30;99.90
13817;DHT22;6979;52.116;5.286;2022-11-12T04:23:26;9.40;99.90
13817;DHT22;6979;52.116;5.286;2022-11-12T04:26:11;9.40;99.90
13817;DHT22;6979;52.116;5.286;2022-11-12T04:29:07;9.30;99.90
13817;DHT22;6979;52.116;5.286;2022-11-12T04:32:10;9.40;99.90
13817;DHT22;6979;52.116;5.286;2022-11-12T04:34:56;9.30;99.90
13817;DHT22;6979;52.116;5.286;2022-11-12T04:37:43;9.30;99.90
13817;DHT22;6979;52.116;5.286;2022-11-12T04:40:29;9.30;99.90
13817;DHT22;6979;52.116;5.286;2022-11-12T04:43:33;9.30;99.90
13817;DHT22;6979;52.116;5.286;2022-11-12T04:46:36;9.30;99.90
13817;DHT22;6979;52.116;5.286;2022-11-12T04:49:21;9.30;99.90
13817;DHT22;6979;52.116;5.286;2022-11-12T04:52:08;9.30;99.90
13817;DHT22;6979;52.116;5.286;2022-11-12T04:54:55;9.30;99.90
13817;DHT22;6979;52.116;5.286;2022-11-12T04:57:41;9.30;99.90
13817;DHT22;6979;52.116;5.286;2022-11-12T05:00:27;9.20;99.90
13817;DHT22;6979;52.116;5.286;2022-11-12T05:03:12;9.20;99.90
13817;DHT22;6979;52.116;5.286;2022-11-12T05:06:00;9.20;99.90
13817;DHT22;6979;52.116;5.286;2022-11-12T05:08:45;9.20;99.90
13817;DHT22;6979;52.116;5.286;2022-11-12T05:11:32;9.20;99.90
13817;DHT22;6979;52.116;5.286;2022-11-12T05:14:18;9.10;99.90
13817;DHT22;6979;52.116;5.286;2022-11-12T05:17:04;9.10;99.90
13817;DHT22;6979;52.116;5.286;2022-11-12T05:19:49;9.10;99.90
13817;DHT22;6979;52.116;5.286;2022-11-12T05:22:34;9.10;99.90
13817;DHT22;6979;52.116;5.286;2022-11-12T05:25:20;9.00;99.90
13817;DHT22;6979;52.116;5.286;2022-11-12T05:28:07;9.00;99.90
13817;DHT22;6979;52.116;5.286;2022-11-12T05:30:52;9.00;99.90
13817;DHT22;6979;52.116;5.286;2022-11-12T05:33:38;9.00;99.90
13817;DHT22;6979;52.116;5.286;2022-11-12T05:36:23;9.00;99.90
13817;DHT22;6979;52.116;5.286;2022-11-12T05:39:09;9.00;99.90
13817;DHT22;6979;52.116;5.286;2022-11-12T05:41:54;8.90;99.90
13817;DHT22;6979;52.116;5.286;2022-11-12T05:44:41;8.90;99.90
13817;DHT22;6979;52.116;5.286;2022-11-12T05:47:27;8.80;99.90
13817;DHT22;6979;52.116;5.286;2022-11-12T05:50:13;8.80;99.90
13817;DHT22;6979;52.116;5.286;2022-11-12T05:52:58;8.80;99.90
13817;DHT22;6979;52.116;5.286;2022-11-12T05:55:44;8.80;99.90
13817;DHT22;6979;52.116;5.286;2022-11-12T05:58:29;8.80;99.90
13817;DHT22;6979;52.116;5.286;2022-11-12T06:01:17;8.70;99.90
13817;DHT22;6979;52.116;5.286;2022-11-12T06:04:03;8.70;99.90
13817;DHT22;6979;52.116;5.286;2022-11-12T06:06:48;8.70;99.90
13817;DHT22;6979;52.116;5.286;2022-11-12T06:09:33;8.70;99.90
13817;DHT22;6979;52.116;5.286;2022-11-12T06:12:19;8.70;99.90
13817;DHT22;6979;52.116;5.286;2022-11-12T06:15:05;8.60;99.90
13817;DHT22;6979;52.116;5.286;2022-11-12T06:17:53;8.60;99.90
13817;DHT22;6979;52.116;5.286;2022-11-12T06:20:38;8.60;99.90
13817;DHT22;6979;52.116;5.286;2022-11-12T06:23:24;8.60;99.90
13817;DHT22;6979;52.116;5.286;2022-11-12T06:26:09;8.60;99.90
13817;DHT22;6979;52.116;5.286;2022-11-12T06:28:55;8.60;99.90
13817;DHT22;6979;52.116;5.286;2022-11-12T06:31:41;8.60;99.90
13817;DHT22;6979;52.116;5.286;2022-11-12T06:34:27;8.60;99.90
13817;DHT22;6979;52.116;5.286;2022-11-12T06:37:13;8.60;99.90
13817;DHT22;6979;52.116;5.286;2022-11-12T06:39:58;8.50;99.90
13817;DHT22;6979;52.116;5.286;2022-11-12T06:42:44;8.50;99.90
13817;DHT22;6979;52.116;5.286;2022-11-12T06:45:29;8.50;99.90
13817;DHT22;6979;52.116;5.286;2022-11-12T06:48:15;8.50;99.90
13817;DHT22;6979;52.116;5.286;2022-11-12T06:51:15;8.50;99.90
13817;DHT22;6979;52.116;5.286;2022-11-12T06:54:01;8.50;99.90
13817;DHT22;6979;52.116;5.286;2022-11-12T06:56:46;8.60;99.90
13817;DHT22;6979;52.116;5.286;2022-11-12T06:59:32;8.50;99.90
13817;DHT22;6979;52.116;5.286;2022-11-12T07:02:17;8.50;99.90
13817;DHT22;6979;52.116;5.286;2022-11-12T07:05:03;8.60;99.90
13817;DHT22;6979;52.116;5.286;2022-11-12T07:07:50;8.60;99.90
13817;DHT22;6979;52.116;5.286;2022-11-12T07:10:35;8.60;99.90
13817;DHT22;6979;52.116;5.286;2022-11-12T07:13:20;8.60;99.90
13817;DHT22;6979;52.116;5.286;2022-11-12T07:16:08;8.60;99.90
13817;DHT22;6979;52.116;5.286;2022-11-12T07:18:53;8.60;99.90
13817;DHT22;6979;52.116;5.286;2022-11-12T07:21:39;8.60;99.90
13817;DHT22;6979;52.116;5.286;2022-11-12T07:24:25;8.60;99.90
13817;DHT22;6979;52.116;5.286;2022-11-12T07:27:11;8.60;99.90
13817;DHT22;6979;52.116;5.286;2022-11-12T07:29:56;8.60;99.90
13817;DHT22;6979;52.116;5.286;2022-11-12T07:32:42;8.70;99.90
13817;DHT22;6979;52.116;5.286;2022-11-12T07:35:28;8.70;99.90
13817;DHT22;6979;52.116;5.286;2022-11-12T07:38:13;8.70;99.90
13817;DHT22;6979;52.116;5.286;2022-11-12T07:41:01;8.70;99.90
13817;DHT22;6979;52.116;5.286;2022-11-12T07:43:48;8.80;99.90
13817;DHT22;6979;52.116;5.286;2022-11-12T07:46:34;8.80;99.90
13817;DHT22;6979;52.116;5.286;2022-11-12T07:49:19;8.90;99.90
13817;DHT22;6979;52.116;5.286;2022-11-12T07:52:05;8.90;99.90
13817;DHT22;6979;52.116;5.286;2022-11-12T07:54:50;9.00;99.90
13817;DHT22;6979;52.116;5.286;2022-11-12T07:57:37;9.10;99.90
13817;DHT22;6979;52.116;5.286;2022-11-12T08:00:23;9.10;99.90
13817;DHT22;6979;52.116;5.286;2022-11-12T08:03:08;9.20;99.90
13817;DHT22;6979;52.116;5.286;2022-11-12T08:05:54;9.30;99.90
13817;DHT22;6979;52.116;5.286;2022-11-12T08:08:39;9.40;99.90
13817;DHT22;6979;52.116;5.286;2022-11-12T08:11:25;9.40;99.90
13817;DHT22;6979;52.116;5.286;2022-11-12T08:14:12;9.50;99.90
13817;DHT22;6979;52.116;5.286;2022-11-12T08:16:57;9.60;99.90
13817;DHT22;6979;52.116;5.286;2022-11-12T08:19:43;9.60;99.90
13817;DHT22;6979;52.116;5.286;2022-11-12T08:22:30;9.70;99.90
13817;DHT22;6979;52.116;5.286;2022-11-12T08:25:15;9.80;99.90
13817;DHT22;6979;52.116;5.286;2022-11-12T08:28:02;9.90;99.90
13817;DHT22;6979;52.116;5.286;2022-11-12T08:30:49;9.90;99.90
13817;DHT22;6979;52.116;5.286;2022-11-12T08:33:35;10.00;99.90
13817;DHT22;6979;52.116;5.286;2022-11-12T08:36:20;10.10;99.90
13817;DHT22;6979;52.116;5.286;2022-11-12T08:39:06;10.30;99.90
13817;DHT22;6979;52.116;5.286;2022-11-12T08:41:51;10.30;99.90
13817;DHT22;6979;52.116;5.286;2022-11-12T08:44:37;10.40;99.90
13817;DHT22;6979;52.116;5.286;2022-11-12T08:47:24;10.50;99.90
13817;DHT22;6979;52.116;5.286;2022-11-12T08:50:09;10.60;99.90
13817;DHT22;6979;52.116;5.286;2022-11-12T08:52:58;10.70;99.90
13817;DHT22;6979;52.116;5.286;2022-11-12T08:55:44;10.80;99.90
13817;DHT22;6979;52.116;5.286;2022-11-12T08:58:29;10.90;99.90
13817;DHT22;6979;52.116;5.286;2022-11-12T09:01:15;11.10;99.90
13817;DHT22;6979;52.116;5.286;2022-11-12T09:04:01;11.20;99.90
13817;DHT22;6979;52.116;5.286;2022-11-12T09:06:47;11.30;99.90
13817;DHT22;6979;52.116;5.286;2022-11-12T09:09:33;11.40;99.90
13817;DHT22;6979;52.116;5.286;2022-11-12T09:12:18;11.50;99.90
13817;DHT22;6979;52.116;5.286;2022-11-12T09:15:05;11.80;99.90
13817;DHT22;6979;52.116;5.286;2022-11-12T09:17:54;12.20;99.90
13817;DHT22;6979;52.116;5.286;2022-11-12T09:20:41;12.80;99.90
13817;DHT22;6979;52.116;5.286;2022-11-12T09:23:27;13.60;99.90
13817;DHT22;6979;52.116;5.286;2022-11-12T09:26:12;14.40;99.90
13817;DHT22;6979;52.116;5.286;2022-11-12T09:28:58;15.20;99.90
13817;DHT22;6979;52.116;5.286;2022-11-12T09:31:43;16.00;99.90
13817;DHT22;6979;52.116;5.286;2022-11-12T09:34:29;16.80;99.90
13817;DHT22;6979;52.116;5.286;2022-11-12T09:37:16;17.50;99.90
13817;DHT22;6979;52.116;5.286;2022-11-12T09:40:01;18.20;99.90
13817;DHT22;6979;52.116;5.286;2022-11-12T09:42:50;18.80;99.90
13817;DHT22;6979;52.116;5.286;2022-11-12T09:45:36;19.40;99.90
13817;DHT22;6979;52.116;5.286;2022-11-12T09:48:24;19.90;99.90
13817;DHT22;6979;52.116;5.286;2022-11-12T09:51:15;20.50;99.90
13817;DHT22;6979;52.116;5.286;2022-11-12T09:54:12;20.80;99.90
13817;DHT22;6979;52.116;5.286;2022-11-12T09:57:02;21.20;99.90
13817;DHT22;6979;52.116;5.286;2022-11-12T09:59:47;21.50;99.90
13817;DHT22;6979;52.116;5.286;2022-11-12T10:02:38;21.80;99.90
13817;DHT22;6979;52.116;5.286;2022-11-12T10:05:32;22.00;99.90
13817;DHT22;6979;52.116;5.286;2022-11-12T10:08:32;22.20;99.90
13817;DHT22;6979;52.116;5.286;2022-11-12T10:15:05;22.70;99.90
13817;DHT22;6979;52.116;5.286;2022-11-12T10:18:21;22.90;99.90
13817;DHT22;6979;52.116;5.286;2022-11-12T10:21:13;23.10;99.90
13817;DHT22;6979;52.116;5.286;2022-11-12T10:24:02;23.30;99.90
13817;DHT22;6979;52.116;5.286;2022-11-12T10:26:49;23.50;99.90
13817;DHT22;6979;52.116;5.286;2022-11-12T10:29:44;23.80;99.90
13817;DHT22;6979;52.116;5.286;2022-11-12T10:32:31;24.00;99.90
13817;DHT22;6979;52.116;5.286;2022-11-12T10:35:18;24.20;99.90
13817;DHT22;6979;52.116;5.286;2022-11-12T10:38:06;24.40;99.90
13817;DHT22;6979;52.116;5.286;2022-11-12T10:40:55;24.60;99.90
13817;DHT22;6979;52.116;5.286;2022-11-12T10:43:52;24.70;99.90
13817;DHT22;6979;52.116;5.286;2022-11-12T10:46:38;24.80;99.90
13817;DHT22;6979;52.116;5.286;2022-11-12T10:49:24;24.80;99.90
13817;DHT22;6979;52.116;5.286;2022-11-12T10:52:20;24.90;99.90
13817;DHT22;6979;52.116;5.286;2022-11-12T10:55:14;25.00;99.90
13817;DHT22;6979;52.116;5.286;2022-11-12T10:58:16;25.00;99.20
13817;DHT22;6979;52.116;5.286;2022-11-12T11:01:07;25.00;99.30
13817;DHT22;6979;52.116;5.286;2022-11-12T11:03:57;24.90;99.10
13817;DHT22;6979;52.116;5.286;2022-11-12T11:06:42;24.90;99.20
13817;DHT22;6979;52.116;5.286;2022-11-12T11:09:28;24.70;98.80
13817;DHT22;6979;52.116;5.286;2022-11-12T11:12:22;24.60;99.40
13817;DHT22;6979;52.116;5.286;2022-11-12T11:15:18;24.50;95.90
13817;DHT22;6979;52.116;5.286;2022-11-12T11:18:07;24.40;95.60
13817;DHT22;6979;52.116;5.286;2022-11-12T11:21:02;24.30;95.70
13817;DHT22;6979;52.116;5.286;2022-11-12T11:23:54;24.20;94.90
13817;DHT22;6979;52.116;5.286;2022-11-12T11:26:50;23.90;95.80
13817;DHT22;6979;52.116;5.286;2022-11-12T11:29:48;23.80;95.10
13817;DHT22;6979;52.116;5.286;2022-11-12T11:32:50;23.70;97.10
13817;DHT22;6979;52.116;5.286;2022-11-12T11:35:49;23.60;97.40
13817;DHT22;6979;52.116;5.286;2022-11-12T11:38:45;23.70;98.10
13817;DHT22;6979;52.116;5.286;2022-11-12T11:41:49;23.80;98.90
13817;DHT22;6979;52.116;5.286;2022-11-12T11:44:40;24.00;98.00
13817;DHT22;6979;52.116;5.286;2022-11-12T11:47:35;24.20;98.50
13817;DHT22;6979;52.116;5.286;2022-11-12T11:50:28;24.30;98.50
13817;DHT22;6979;52.116;5.286;2022-11-12T11:53:22;24.40;98.50
13817;DHT22;6979;52.116;5.286;2022-11-12T11:56:17;24.60;98.50
13817;DHT22;6979;52.116;5.286;2022-11-12T11:59:19;24.80;98.70
13817;DHT22;6979;52.116;5.286;2022-11-12T12:02:26;25.00;98.40
13817;DHT22;6979;52.116;5.286;2022-11-12T12:05:31;25.20;98.70
13817;DHT22;6979;52.116;5.286;2022-11-12T12:08:25;25.50;97.80
13817;DHT22;6979;52.116;5.286;2022-11-12T12:11:21;25.70;97.60
13817;DHT22;6979;52.116;5.286;2022-11-12T12:14:35;25.90;94.80
13817;DHT22;6979;52.116;5.286;2022-11-12T12:17:39;25.90;92.50
13817;DHT22;6979;52.116;5.286;2022-11-12T12:20:34;25.90;92.70
13817;DHT22;6979;52.116;5.286;2022-11-12T12:23:27;25.80;93.40
13817;DHT22;6979;52.116;5.286;2022-11-12T12:26:16;25.70;93.30
13817;DHT22;6979;52.116;5.286;2022-11-12T12:29:06;25.60;93.60
13817;DHT22;6979;52.116;5.286;2022-11-12T12:31:58;25.70;94.00
13817;DHT22;6979;52.116;5.286;2022-11-12T12:34:47;25.60;93.30
13817;DHT22;6979;52.116;5.286;2022-11-12T12:37:41;25.70;92.90
13817;DHT22;6979;52.116;5.286;2022-11-12T12:40:33;25.70;92.70
13817;DHT22;6979;52.116;5.286;2022-11-12T12:43:25;25.70;93.90
13817;DHT22;6979;52.116;5.286;2022-11-12T12:46:14;25.70;94.20
13817;DHT22;6979;52.116;5.286;2022-11-12T12:49:03;25.90;95.00
13817;DHT22;6979;52.116;5.286;2022-11-12T12:51:49;26.20;95.30
13817;DHT22;6979;52.116;5.286;2022-11-12T12:54:54;26.40;94.40
13817;DHT22;6979;52.116;5.286;2022-11-12T12:57:42;26.70;93.10
13817;DHT22;6979;52.116;5.286;2022-11-12T13:00:32;26.90;91.80
13817;DHT22;6979;52.116;5.286;2022-11-12T13:06:34;26.90;91.70
13817;DHT22;6979;52.116;5.286;2022-11-12T13:09:23;26.90;92.20
13817;DHT22;6979;52.116;5.286;2022-11-12T13:12:09;27.00;92.80
13817;DHT22;6979;52.116;5.286;2022-11-12T13:15:11;27.30;93.20
13817;DHT22;6979;52.116;5.286;2022-11-12T13:17:58;27.60;93.40
13817;DHT22;6979;52.116;5.286;2022-11-12T13:21:07;28.00;93.20
13817;DHT22;6979;52.116;5.286;2022-11-12T13:23:58;28.40;92.70
13817;DHT22;6979;52.116;5.286;2022-11-12T13:26:55;28.90;91.80
13817;DHT22;6979;52.116;5.286;2022-11-12T13:29:42;29.20;91.50
13817;DHT22;6979;52.116;5.286;2022-11-12T13:32:53;29.50;90.80
13817;DHT22;6979;52.116;5.286;2022-11-12T13:35:39;29.80;90.90
13817;DHT22;6979;52.116;5.286;2022-11-12T13:38:25;30.00;90.10
13817;DHT22;6979;52.116;5.286;2022-11-12T13:41:14;30.10;88.80
13817;DHT22;6979;52.116;5.286;2022-11-12T13:44:04;30.20;86.60
13817;DHT22;6979;52.116;5.286;2022-11-12T13:46:51;30.20;86.60
13817;DHT22;6979;52.116;5.286;2022-11-12T13:49:42;30.20;86.40
13817;DHT22;6979;52.116;5.286;2022-11-12T13:52:28;30.10;86.00
13817;DHT22;6979;52.116;5.286;2022-11-12T13:55:15;30.10;86.40
13817;DHT22;6979;52.116;5.286;2022-11-12T13:58:01;30.00;85.90
13817;DHT22;6979;52.116;5.286;2022-11-12T14:00:50;29.90;86.20
13817;DHT22;6979;52.116;5.286;2022-11-12T14:03:42;29.80;85.80
13817;DHT22;6979;52.116;5.286;2022-11-12T14:06:34;29.80;86.00
13817;DHT22;6979;52.116;5.286;2022-11-12T14:09:31;29.70;85.70
13817;DHT22;6979;52.116;5.286;2022-11-12T14:12:37;29.70;85.30
13817;DHT22;6979;52.116;5.286;2022-11-12T14:15:38;29.70;85.50
13817;DHT22;6979;52.116;5.286;2022-11-12T14:18:33;29.70;85.00
13817;DHT22;6979;52.116;5.286;2022-11-12T14:21:22;29.70;85.30
13817;DHT22;6979;52.116;5.286;2022-11-12T14:24:11;29.70;85.70
13817;DHT22;6979;52.116;5.286;2022-11-12T14:26:57;29.70;85.30
13817;DHT22;6979;52.116;5.286;2022-11-12T14:29:42;29.70;85.70
13817;DHT22;6979;52.116;5.286;2022-11-12T14:32:34;29.70;85.60
13817;DHT22;6979;52.116;5.286;2022-11-12T14:35:29;29.60;84.60
13817;DHT22;6979;52.116;5.286;2022-11-12T14:38:17;29.60;84.90
13817;DHT22;6979;52.116;5.286;2022-11-12T14:41:07;29.50;85.10
13817;DHT22;6979;52.116;5.286;2022-11-12T14:43:54;29.50;84.60
13817;DHT22;6979;52.116;5.286;2022-11-12T14:46:45;29.40;84.70
13817;DHT22;6979;52.116;5.286;2022-11-12T14:49:34;29.20;84.60
13817;DHT22;6979;52.116;5.286;2022-11-12T14:52:25;29.10;84.60
13817;DHT22;6979;52.116;5.286;2022-11-12T14:55:16;29.00;84.60
13817;DHT22;6979;52.116;5.286;2022-11-12T14:58:04;28.80;85.00
13817;DHT22;6979;52.116;5.286;2022-11-12T15:00:51;28.70;85.00
13817;DHT22;6979;52.116;5.286;2022-11-12T15:03:36;28.50;85.10
13817;DHT22;6979;52.116;5.286;2022-11-12T15:06:28;28.40;85.10
13817;DHT22;6979;52.116;5.286;2022-11-12T15:09:16;28.20;84.50
13817;DHT22;6979;52.116;5.286;2022-11-12T15:12:06;27.90;84.60
13817;DHT22;6979;52.116;5.286;2022-11-12T15:15:05;27.60;84.80
13817;DHT22;6979;52.116;5.286;2022-11-12T15:17:55;27.20;84.70
13817;DHT22;6979;52.116;5.286;2022-11-12T15:20:41;26.80;85.20
13817;DHT22;6979;52.116;5.286;2022-11-12T15:23:27;26.40;85.90
13817;DHT22;6979;52.116;5.286;2022-11-12T15:26:22;25.90;86.40
13817;DHT22;6979;52.116;5.286;2022-11-12T15:29:17;25.50;86.90
13817;DHT22;6979;52.116;5.286;2022-11-12T15:32:32;25.00;87.50
13817;DHT22;6979;52.116;5.286;2022-11-12T15:35:37;24.60;88.20
13817;DHT22;6979;52.116;5.286;2022-11-12T15:38:28;24.20;89.00
13817;DHT22;6979;52.116;5.286;2022-11-12T15:41:23;23.90;89.60
13817;DHT22;6979;52.116;5.286;2022-11-12T15:44:10;23.50;90.00
13817;DHT22;6979;52.116;5.286;2022-11-12T15:46:56;23.30;90.30
13817;DHT22;6979;52.116;5.286;2022-11-12T15:49:48;23.00;90.40
13817;DHT22;6979;52.116;5.286;2022-11-12T15:52:33;22.70;90.60
13817;DHT22;6979;52.116;5.286;2022-11-12T15:55:19;22.40;90.80
13817;DHT22;6979;52.116;5.286;2022-11-12T15:58:06;22.20;91.00
13817;DHT22;6979;52.116;5.286;2022-11-12T16:00:51;21.90;91.10
13817;DHT22;6979;52.116;5.286;2022-11-12T16:03:37;21.60;91.40
13817;DHT22;6979;52.116;5.286;2022-11-12T16:06:24;21.40;91.70
13817;DHT22;6979;52.116;5.286;2022-11-12T16:09:09;21.10;91.80
13817;DHT22;6979;52.116;5.286;2022-11-12T16:11:54;20.90;92.10
13817;DHT22;6979;52.116;5.286;2022-11-12T16:14:41;20.70;92.40
13817;DHT22;6979;52.116;5.286;2022-11-12T16:17:27;20.60;92.70
13817;DHT22;6979;52.116;5.286;2022-11-12T16:20:14;20.40;93.00
13817;DHT22;6979;52.116;5.286;2022-11-12T16:23:01;20.20;93.20
13817;DHT22;6979;52.116;5.286;2022-11-12T16:25:46;20.00;93.20
13817;DHT22;6979;52.116;5.286;2022-11-12T16:28:34;19.90;93.40
13817;DHT22;6979;52.116;5.286;2022-11-12T16:31:19;19.80;93.50
13817;DHT22;6979;52.116;5.286;2022-11-12T16:34:05;19.60;93.70
13817;DHT22;6979;52.116;5.286;2022-11-12T16:36:50;19.40;93.90
13817;DHT22;6979;52.116;5.286;2022-11-12T16:39:37;19.30;94.20
13817;DHT22;6979;52.116;5.286;2022-11-12T16:42:23;19.20;94.40
13817;DHT22;6979;52.116;5.286;2022-11-12T16:45:09;19.10;94.70
13817;DHT22;6979;52.116;5.286;2022-11-12T16:47:55;18.90;94.60
13817;DHT22;6979;52.116;5.286;2022-11-12T16:50:41;18.80;94.80
13817;DHT22;6979;52.116;5.286;2022-11-12T16:53:26;18.70;94.80
13817;DHT22;6979;52.116;5.286;2022-11-12T16:56:17;18.60;95.00
13817;DHT22;6979;52.116;5.286;2022-11-12T16:59:04;18.50;95.40
13817;DHT22;6979;52.116;5.286;2022-11-12T17:01:49;18.40;95.60
13817;DHT22;6979;52.116;5.286;2022-11-12T17:04:35;18.30;95.60
13817;DHT22;6979;52.116;5.286;2022-11-12T17:07:20;18.20;95.60
13817;DHT22;6979;52.116;5.286;2022-11-12T17:10:07;18.00;95.80
13817;DHT22;6979;52.116;5.286;2022-11-12T17:12:53;17.90;95.80
13817;DHT22;6979;52.116;5.286;2022-11-12T17:15:39;17.80;96.00
13817;DHT22;6979;52.116;5.286;2022-11-12T17:18:24;17.70;96.10
13817;DHT22;6979;52.116;5.286;2022-11-12T17:21:12;17.60;96.20
13817;DHT22;6979;52.116;5.286;2022-11-12T17:23:58;17.50;96.60
13817;DHT22;6979;52.116;5.286;2022-11-12T17:26:44;17.40;96.70
13817;DHT22;6979;52.116;5.286;2022-11-12T17:29:31;17.30;97.00
13817;DHT22;6979;52.116;5.286;2022-11-12T17:32:16;17.20;97.30
13817;DHT22;6979;52.116;5.286;2022-11-12T17:35:01;17.10;97.30
13817;DHT22;6979;52.116;5.286;2022-11-12T17:37:47;17.00;97.90
13817;DHT22;6979;52.116;5.286;2022-11-12T17:40:34;16.90;97.60
13817;DHT22;6979;52.116;5.286;2022-11-12T17:43:19;16.80;97.80
13817;DHT22;6979;52.116;5.286;2022-11-12T17:46:08;16.70;98.00
13817;DHT22;6979;52.116;5.286;2022-11-12T17:48:53;16.60;98.10
13817;DHT22;6979;52.116;5.286;2022-11-12T17:51:39;16.50;98.30
13817;DHT22;6979;52.116;5.286;2022-11-12T17:54:24;16.40;98.50
13817;DHT22;6979;52.116;5.286;2022-11-12T17:57:10;16.40;98.50
13817;DHT22;6979;52.116;5.286;2022-11-12T17:59:55;16.30;98.90
13817;DHT22;6979;52.116;5.286;2022-11-12T18:02:42;16.20;99.00
13817;DHT22;6979;52.116;5.286;2022-11-12T18:05:28;16.10;99.20
13817;DHT22;6979;52.116;5.286;2022-11-12T18:08:13;16.10;99.50
13817;DHT22;6979;52.116;5.286;2022-11-12T18:11:00;16.00;99.70
13817;DHT22;6979;52.116;5.286;2022-11-12T18:13:45;15.90;99.90
13817;DHT22;6979;52.116;5.286;2022-11-12T18:16:31;15.80;99.90